Latest Weather Observations for Badgerys Creek

IDN60901

Issued at 1:45 pm EDT Wednesday 26 November 2014 (issued every 10 minutes, with the page automatically refreshed every 10 minutes)

About weather observations | Map of Sydney area stations | Latest observations for Sydney area | Other Formats
Station Details ID: 067108 Name: BADGERYS CREEK AWS Lat: -33.90 Lon: 150.73 Height: 81.2 m
Data from the previous 72 hours. | See also: Recent months at Badgerys Creek
Date/Time
EDT
Tmp

°C
App
Tmp
°C
Dew
Point
°C
Rel
Hum
%
Delta-T

°C
Wind Press
QNH
hPa
Press
MSL
hPa
Rain
since
9 am
mm
Dir
 
Spd
km/h
Gust
km/h
Spd
kts
Gust
kts
26/01:30pm 24.8 23.9 14.9 54 5.9 NNE 13 20 7 11 1016.8 1016.6 0.0
26/01:00pm 24.0 22.3 14.7 56 5.5 NNE 17 26 9 14 1017.1 1016.9 0.0
26/12:30pm 22.7 20.7 14.0 58 5.1 NNE 17 30 9 16 1017.7 1017.4 0.0
26/12:00pm 22.8 20.9 14.1 58 5.1 N 17 24 9 13 1018.4 1018.1 0.0
26/11:30am 21.5 19.8 13.7 61 4.5 N 15 19 8 10 1018.9 1018.6 0.0
26/11:00am 20.8 19.4 13.5 63 4.2 N 13 17 7 9 1019.2 1018.9 0.0
26/10:30am 20.8 20.2 13.5 63 4.2 N 9 13 5 7 1019.3 1019.0 0.0
26/10:00am 20.9 20.4 13.8 64 4.1 N 9 17 5 9 1019.4 1019.1 0.0
26/09:30am 20.6 19.9 13.3 63 4.2 N 9 15 5 8 1019.6 1019.3 0.0
26/09:00am 20.2 19.6 13.6 66 3.8 NNE 9 15 5 8 1019.8 1019.5 0.4
26/08:30am 19.8 19.0 14.0 69 3.4 N 11 17 6 9 1019.9 1019.6 0.4
26/08:00am 19.6 18.4 14.0 70 3.2 NNE 13 15 7 8 1019.8 1019.5 0.4
26/07:30am 19.1 18.9 14.8 76 2.5 NNE 9 15 5 8 1019.6 1019.3 0.4
26/07:00am 18.6 19.4 14.7 78 2.3 NE 4 6 2 3 1019.5 1019.2 0.4
26/06:30am 18.0 18.7 14.5 80 2.0 NE 4 6 2 3 1019.5 1019.2 0.4
26/06:00am 17.9 18.1 14.2 79 2.1 NE 6 7 3 4 1019.4 1019.1 0.4
26/05:30am 17.9 18.1 14.2 79 2.1 NE 6 7 3 4 1019.2 1018.9 0.4
26/05:00am 17.9 18.1 14.6 81 1.9 NE 7 11 4 6 1019.1 1018.8 0.4
26/04:30am 17.4 17.7 15.0 86 1.4 NW 7 11 4 6 1018.9 1018.6 0.4
26/04:00am 17.7 18.6 15.1 85 1.5 NNE 4 9 2 5 1019.1 1018.8 0.4
26/03:30am 17.4 19.1 15.2 87 1.3 CALM 0 0 0 0 1019.1 1018.8 0.2
26/03:00am 17.7 19.3 14.8 83 1.7 CALM 0 2 0 1 1019.3 1019.0 0.0
26/02:30am 17.4 18.2 14.9 85 1.5 SE 4 7 2 4 1019.5 1019.2 0.0
26/02:00am 17.6 17.9 14.5 82 1.8 SE 6 7 3 4 1019.8 1019.5 0.0
26/01:30am 18.1 18.2 14.0 77 2.4 SSE 6 7 3 4 1020.1 1019.8 0.0
26/01:00am 18.4 19.2 13.7 74 2.7 SE 2 4 1 2 1020.4 1020.1 0.0
26/12:30am 18.6 18.6 13.7 73 2.8 SE 6 7 3 4 1020.8 1020.5 0.0
26/12:00am 18.6 18.9 13.5 72 2.9 ESE 4 6 2 3 1020.7 1020.4 0.0
 
Date/Time
EDT
Tmp

°C
App
Tmp
°C
Dew
Point
°C
Rel
Hum
%
Delta-T

°C
Wind Press
QNH
hPa
Press
MSL
hPa
Rain
since
9 am
mm
Dir
 
Spd
km/h
Gust
km/h
Spd
kts
Gust
kts
25/11:30pm 18.8 19.6 13.6 72 3.0 SE 2 4 1 2 1020.7 1020.4 0.0
25/11:00pm 18.8 19.5 13.4 71 3.1 SE 2 6 1 3 1020.9 1020.6 0.0
25/10:30pm 18.8 19.1 13.4 71 3.1 SE 4 7 2 4 1020.9 1020.6 0.0
25/10:00pm 18.9 18.2 13.3 70 3.2 E 9 13 5 7 1020.7 1020.4 0.0
25/09:30pm 18.9 18.6 13.3 70 3.2 E 7 13 4 7 1020.2 1019.9 0.0
25/09:00pm 18.9 17.8 13.1 69 3.3 ESE 11 15 6 8 1020.0 1019.7 0.0
25/08:30pm 18.9 17.7 12.9 68 3.4 ESE 11 15 6 8 1019.7 1019.4 0.0
25/08:00pm 18.8 18.0 12.8 68 3.4 ESE 9 15 5 8 1019.1 1018.8 0.0
25/07:30pm 19.3 17.7 12.8 66 3.7 ESE 13 20 7 11 1018.5 1018.2 0.0
25/07:00pm 20.1 18.1 12.6 62 4.2 ESE 15 24 8 13 1017.8 1017.5 0.0
25/06:30pm 20.9 18.5 12.8 60 4.6 ESE 17 28 9 15 1017.1 1016.9 0.0
25/06:00pm 21.6 19.0 13.2 59 4.8 ESE 19 30 10 16 1016.6 1016.4 0.0
25/05:30pm 22.2 19.3 13.0 56 5.3 ESE 20 28 11 15 1016.0 1015.8 0.0
25/05:00pm 22.7 20.0 13.5 56 5.3 ESE 20 30 11 16 1015.7 1015.5 0.0
25/04:30pm 23.6 19.9 12.6 50 6.3 E 24 33 13 18 1015.4 1015.2 0.0
25/04:00pm 24.1 21.1 12.7 49 6.6 E 20 33 11 18 1015.2 1015.0 0.0
25/03:30pm 24.7 21.2 13.3 49 6.7 E 24 33 13 18 1015.1 1014.9 0.0
25/03:00pm 25.8 22.4 12.6 44 7.7 E 22 33 12 18 1014.9 1014.7 0.0
25/02:30pm 25.2 22.6 13.1 47 7.1 E 19 30 10 16 1015.1 1014.9 0.0
25/02:00pm 26.6 23.1 -1.3 16 12.7 E 7 13 4 7 1015.3 1015.1 0.0
25/01:30pm 25.9 22.1 -1.0 17 12.3 SSW 9 15 5 8 1015.6 1015.4 0.0
25/01:00pm 25.6 21.2 0.3 19 11.8 SSW 13 20 7 11 1015.6 1015.4 0.0
25/12:30pm 24.6 19.6 -1.3 18 11.6 SSW 15 22 8 12 1015.8 1015.6 0.0
25/12:00pm 24.5 18.2 -1.3 18 11.6 WSW 22 33 12 18 1015.7 1015.5 0.0
25/11:30am 24.3 18.0 -0.8 19 11.4 WSW 22 32 12 17 1015.5 1015.3 0.0
25/11:00am 23.8 18.7 3.2 26 10.0 WSW 19 28 10 15 1015.5 1015.3 0.0
25/10:30am 22.9 15.9 1.9 25 9.9 WSW 28 35 15 19 1015.4 1015.2 0.0
25/10:00am 22.8 18.5 7.0 36 8.2 SW 19 24 10 13 1015.0 1014.8 0.0
25/09:30am 22.9 17.3 7.1 36 8.2 SW 26 43 14 23 1014.3 1014.1 0.0
25/09:00am 23.0 17.0 8.7 40 7.6 SW 30 41 16 22 1013.5 1013.3 3.0
25/08:30am 23.0 20.0 14.8 60 4.9 SW 24 41 13 22 1012.7 1012.5 3.0
25/08:00am 22.9 23.6 17.1 70 3.6 SW 9 17 5 9 1012.0 1011.8 3.0
25/07:30am 22.6 24.5 18.6 78 2.5 SSW 6 7 3 4 1011.5 1011.3 3.0
25/07:00am 22.7 24.1 17.8 74 3.1 SW 7 9 4 5 1010.6 1010.4 3.0
25/06:30am 22.9 23.5 16.7 68 3.8 WNW 9 11 5 6 1009.9 1009.6 3.0
25/06:00am 22.0 23.6 18.2 79 2.4 N 7 11 4 6 1009.5 1009.2 3.0
25/05:30am 22.6 23.8 18.2 76 2.8 NW 9 11 5 6 1008.8 1008.5 3.0
25/05:00am 22.3 22.8 18.3 78 2.5 N 13 17 7 9 1008.0 1007.7 3.0
25/04:30am 22.0 23.8 19.5 86 1.6 N 9 13 5 7 1008.0 1007.7 3.0
25/04:00am 22.1 22.8 19.6 86 1.6 N 15 19 8 10 1008.3 1008.0 3.0
25/03:30am 22.2 22.3 19.9 87 1.5 N 19 26 10 14 1008.2 1007.9 3.0
25/03:00am 22.2 23.5 20.1 88 1.4 N 13 20 7 11 1008.0 1007.7 3.0
25/02:30am 22.4 23.0 20.3 88 1.4 NNE 17 24 9 13 1007.7 1007.4 3.0
25/02:00am 22.8 24.5 21.6 93 0.8 NNE 15 22 8 12 1008.3 1008.0 3.0
25/01:30am 22.9 25.4 21.7 93 0.8 NNE 11 13 6 7 1008.6 1008.3 2.8
25/01:00am 22.7 25.7 21.3 92 0.9 NE 7 9 4 5 1009.0 1008.7 2.8
25/12:30am 22.8 25.1 21.3 91 1.0 N 11 13 6 7 1009.0 1008.7 2.8
25/12:00am 22.7 25.5 20.8 89 1.2 NNE 7 9 4 5 1009.1 1008.8 2.8
 
Date/Time
EDT
Tmp

°C
App
Tmp
°C
Dew
Point
°C
Rel
Hum
%
Delta-T

°C
Wind Press
QNH
hPa
Press
MSL
hPa
Rain
since
9 am
mm
Dir
 
Spd
km/h
Gust
km/h
Spd
kts
Gust
kts
24/11:30pm 22.4 24.4 20.7 90 1.1 NNE 11 13 6 7 1009.1 1008.8 2.8
24/11:00pm 22.6 25.4 20.9 90 1.1 NNW 7 9 4 5 1009.4 1009.1 2.8
24/10:30pm 22.6 26.3 20.7 89 1.2 SW 2 6 1 3 1009.2 1008.9 2.8
24/10:00pm 22.5 25.7 20.4 88 1.4 S 4 6 2 3 1009.5 1009.2 2.8
24/09:30pm 23.0 26.9 20.3 85 1.8 CALM 0 0 0 0 1009.5 1009.2 2.8
24/09:00pm 22.9 26.3 20.2 85 1.8 NE 2 6 1 3 1009.2 1008.9 2.8
24/08:30pm 22.9 25.5 20.1 84 1.8 NNE 6 7 3 4 1009.1 1008.8 2.8
24/08:00pm 23.1 26.9 20.1 83 1.9 CALM 0 0 0 0 1008.8 1008.5 2.8
24/07:30pm 23.1 25.9 19.7 81 2.2 ESE 4 7 2 4 1008.6 1008.3 2.8
24/07:00pm 23.4 23.3 19.5 79 2.5 ENE 19 24 10 13 1008.3 1008.0 2.8
24/06:30pm 24.4 26.8 20.1 77 2.8 ENE 7 11 4 6 1008.4 1008.1 2.8
24/06:00pm 24.8 26.9 20.1 75 3.1 E 9 13 5 7 1007.4 1007.1 2.8
24/05:30pm 24.3 25.6 20.2 78 2.7 E 13 20 7 11 1007.1 1006.8 2.8
24/05:00pm 24.1 26.1 20.0 78 2.7 ESE 9 13 5 7 1007.8 1007.5 2.8
24/04:30pm 24.7 26.5 20.4 77 2.8 SE 11 19 6 10 1007.8 1007.5 2.8
24/04:00pm 23.9 25.1 19.8 78 2.7 SE 13 19 7 10 1007.4 1007.1 2.8
24/03:30pm 26.3 28.6 19.9 68 4.2 ESE 7 11 4 6 1008.9 1008.6 2.2
24/03:00pm 31.4 31.0 18.0 44 8.6 ESE 17 26 9 14 1007.0 1006.7 0.0
24/02:30pm 33.9 34.6 18.0 39 10.3 NE 11 17 6 9 1006.8 1006.5 0.0
24/02:00pm 33.3 33.6 17.9 40 10.0 ENE 13 22 7 12 1007.5 1007.2 0.0
24/01:30pm 32.8 33.6 18.2 42 9.5 ENE 11 20 6 11 1008.7 1008.4 0.0
24/01:00pm 30.8 32.3 18.8 48 7.8 ENE 9 19 5 10 1009.5 1009.2 0.0
24/12:30pm 30.7 32.9 19.1 50 7.6 ENE 6 9 3 5 1010.4 1010.2 0.0
24/12:00pm 29.0 30.8 18.4 52 6.8 NE 6 13 3 7 1011.3 1011.1 0.0
24/11:30am 27.8 29.8 18.8 58 5.8 ESE 6 13 3 7 1012.1 1011.9 0.0
24/11:00am 26.2 28.5 18.6 63 4.9 NNE 4 9 2 5 1013.0 1012.8 0.0
24/10:30am 24.9 27.2 18.6 68 4.0 W 4 7 2 4 1013.9 1013.7 0.0
24/10:00am 24.5 27.0 19.1 72 3.5 N 4 6 2 3 1014.6 1014.4 0.0
24/09:30am 23.2 24.9 18.1 73 3.2 ENE 6 9 3 5 1014.8 1014.6 0.0
24/09:00am 22.2 24.8 18.4 79 2.4 ENE 2 6 1 3 1015.3 1015.1 0.0
24/08:30am 21.7 23.5 18.3 81 2.1 ENE 6 11 3 6 1015.7 1015.5 0.0
24/08:00am 21.4 22.2 18.2 82 2.0 ENE 11 15 6 8 1015.4 1015.2 0.0
24/07:30am 21.4 21.6 18.6 84 1.8 ENE 15 22 8 12 1014.7 1014.5 0.0
24/07:00am 21.1 20.9 18.5 85 1.6 ENE 17 26 9 14 1014.3 1014.1 0.0
24/06:30am 21.2 21.6 19.1 88 1.3 NE 15 20 8 11 1013.5 1013.3 0.0
24/06:00am 20.9 22.2 19.4 91 1.0 ENE 11 17 6 9 1012.6 1012.4 0.0
24/05:30am 20.8 23.0 19.5 92 0.8 ENE 7 9 4 5 1011.8 1011.6 0.0
24/05:00am 20.7 22.8 19.4 92 0.8 E 7 9 4 5 1011.8 1011.6 0.0
24/04:30am 20.4 22.1 19.4 94 0.6 SSE 9 11 5 6 1011.5 1011.3 0.0
24/04:00am 19.9 22.3 18.7 93 0.8 SW 4 6 2 3 1012.3 1012.1 0.0
24/03:30am 20.0 22.3 18.5 91 0.9 SW 4 7 2 4 1012.0 1011.8 0.0
24/03:00am 20.6 23.5 19.1 91 0.9 W 2 6 1 3 1012.2 1012.0 0.0
24/02:30am 21.0 23.9 19.1 89 1.2 NNE 2 6 1 3 1012.7 1012.5 0.0
24/02:00am 21.3 24.2 19.0 87 1.5 ESE 2 4 1 2 1012.7 1012.5 0.0
24/01:30am 21.4 23.5 19.3 88 1.3 SSW 7 11 4 6 1013.4 1013.2 0.0
24/01:00am 21.6 23.8 19.3 87 1.5 NE 6 9 3 5 1013.3 1013.1 0.0
24/12:30am 21.8 24.9 19.4 86 1.5 N 2 4 1 2 1014.1 1013.9 0.0
24/12:00am 22.1 24.2 19.3 84 1.8 NNW 7 9 4 5 1014.5 1014.3 0.0
 
Date/Time
EDT
Tmp

°C
App
Tmp
°C
Dew
Point
°C
Rel
Hum
%
Delta-T

°C
Wind Press
QNH
hPa
Press
MSL
hPa
Rain
since
9 am
mm
Dir
 
Spd
km/h
Gust
km/h
Spd
kts
Gust
kts
23/11:30pm 22.2 23.3 19.6 85 1.7 NNE 13 19 7 10 1014.2 1014.0 0.0
23/11:00pm 22.3 23.8 19.7 85 1.7 NNE 11 19 6 10 1013.4 1013.2 0.0
23/10:30pm 22.4 24.6 19.6 84 1.8 N 7 9 4 5 1014.3 1014.1 0.0
23/10:00pm 22.7 24.7 19.1 80 2.3 NNE 7 13 4 7 1013.5 1013.3 0.0
23/09:30pm 22.8 25.7 19.0 79 2.4 NE 2 6 1 3 1012.9 1012.7 0.0
23/09:00pm 23.2 24.2 18.7 76 2.9 E 11 17 6 9 1012.4 1012.2 0.0
23/08:30pm 24.8 25.7 18.5 68 4.0 ESE 11 19 6 10 1012.3 1012.1 0.0
23/08:00pm 26.2 27.8 18.3 61 5.0 S 7 11 4 6 1011.9 1011.7 0.0
23/07:30pm 26.6 27.0 18.2 60 5.3 SSE 13 19 7 10 1010.8 1010.6 0.0
23/07:00pm 26.7 27.3 18.6 61 5.2 SE 13 20 7 11 1009.9 1009.6 0.0
23/06:30pm 26.8 26.9 19.2 63 4.9 SE 17 24 9 13 1008.4 1008.1 0.0
23/06:00pm 27.8 27.1 19.6 61 5.4 SE 22 35 12 19 1007.8 1007.5 0.0
23/05:30pm 29.7 29.0 19.4 54 6.7 ESE 22 32 12 17 1006.2 1005.9 0.0
23/05:21pm 30.4 29.3 19.4 51 7.2 E 24 33 13 18 1006.2 1005.9 0.0
23/05:00pm 35.4 34.6 19.3 38 10.7 E 22 28 12 15 1005.7 1005.4 0.0
23/04:30pm 36.2 36.7 19.2 37 11.3 ESE 15 22 8 12 1006.1 1005.8 0.0
23/04:00pm 36.3 35.5 19.3 37 11.3 E 22 32 12 17 1006.3 1006.0 0.0
23/03:30pm 38.8 38.9 19.1 31 13.2 E 17 22 9 12 1006.2 1005.9 0.0
23/03:00pm 40.6 40.5 17.9 26 15.0 E 15 20 8 11 1006.5 1006.2 0.0
23/02:30pm 40.7 40.5 16.8 24 15.6 E 13 19 7 10 1007.0 1006.7 0.0
23/02:00pm 39.8 40.3 18.4 28 14.2 E 13 22 7 12 1007.5 1007.2 0.0

Latest Capital City Observations: Canberra | Sydney | Melbourne | Brisbane | Adelaide | Perth | Hobart | Darwin

Other Formats:

Comma delimited format used in spreadsheet applications
http://www.bom.gov.au/fwo/IDN60901/IDN60901.94752.axf

JavaScript Object Notation format (JSON) in row-major order
http://www.bom.gov.au/fwo/IDN60901/IDN60901.94752.json